createdAt,value
2023-05-25T00:01:01.197Z,101793.53
2023-05-25T00:03:48.523Z,101781.09
2023-05-25T00:06:33.885Z,101787.38
2023-05-25T00:09:19.449Z,101795.47
2023-05-25T00:12:05.140Z,101796.78
2023-05-25T00:14:50.463Z,101796.31
2023-05-25T00:17:35.767Z,101785.84
2023-05-25T00:20:21.118Z,101793.31
2023-05-25T00:23:06.665Z,101796.00
2023-05-25T00:25:51.945Z,101791.25
2023-05-25T00:28:37.342Z,101789.78
2023-05-25T00:31:22.878Z,101798.13
2023-05-25T00:34:08.032Z,101798.03
2023-05-25T00:36:54.563Z,101804.75
2023-05-25T00:39:39.947Z,101793.50
2023-05-25T00:42:25.413Z,101791.16
2023-05-25T00:45:11.354Z,101784.81
2023-05-25T00:47:57.743Z,101789.25
2023-05-25T00:50:43.872Z,101781.69
2023-05-25T00:53:29.406Z,101786.78
2023-05-25T00:56:18.234Z,101784.56
2023-05-25T00:59:06.438Z,101793.34
2023-05-25T01:01:53.372Z,101789.22
2023-05-25T01:04:43.033Z,101789.50
2023-05-25T01:07:30.218Z,101783.97
2023-05-25T01:10:16.765Z,101786.88
2023-05-25T01:13:03.015Z,101794.41
2023-05-25T01:15:49.724Z,101796.50
2023-05-25T01:18:35.358Z,101797.56
2023-05-25T01:21:35.009Z,101798.56
2023-05-25T01:24:33.267Z,101805.63
2023-05-25T01:27:27.893Z,101800.97
2023-05-25T01:30:15.647Z,101804.47
2023-05-25T01:33:01.724Z,101799.31
2023-05-25T01:35:47.635Z,101805.84
2023-05-25T01:38:33.783Z,101802.50
2023-05-25T01:41:18.867Z,101801.69
2023-05-25T01:44:05.037Z,101807.84
2023-05-25T01:46:54.663Z,101809.97
2023-05-25T01:50:07.659Z,101805.22
2023-05-25T01:53:02.700Z,101802.28
2023-05-25T01:55:55.524Z,101803.16
2023-05-25T01:58:43.540Z,101809.25
2023-05-25T02:01:30.988Z,101804.09
2023-05-25T02:04:18.366Z,101796.44
2023-05-25T02:07:04.598Z,101799.81
2023-05-25T02:09:50.187Z,101805.59
2023-05-25T02:12:35.448Z,101798.44
2023-05-25T02:15:21.452Z,101806.75
2023-05-25T02:18:06.898Z,101800.16
2023-05-25T02:20:52.230Z,101814.00
2023-05-25T02:23:37.825Z,101813.94
2023-05-25T02:26:23.045Z,101811.72
2023-05-25T02:29:08.547Z,101811.91
2023-05-25T02:31:53.574Z,101813.63
2023-05-25T02:34:39.014Z,101818.84
2023-05-25T02:37:24.262Z,101817.28
2023-05-25T02:40:10.344Z,101810.63
2023-05-25T02:42:55.557Z,101816.78
2023-05-25T02:45:40.947Z,101816.22
2023-05-25T02:48:26.148Z,101821.47
2023-05-25T02:51:11.494Z,101809.94
2023-05-25T02:53:57.093Z,101811.22
2023-05-25T02:56:42.593Z,101807.91
2023-05-25T02:59:27.433Z,101805.19
2023-05-25T03:02:12.820Z,101809.34
2023-05-25T03:04:57.817Z,101806.22
2023-05-25T03:07:43.492Z,101812.59
2023-05-25T03:10:28.648Z,101804.63
2023-05-25T03:13:13.922Z,101815.44
2023-05-25T03:15:59.162Z,101823.91
2023-05-25T03:18:44.508Z,101826.28
2023-05-25T03:21:29.846Z,101831.03
2023-05-25T03:24:15.253Z,101836.78
2023-05-25T03:27:00.802Z,101845.84
2023-05-25T03:29:49.511Z,101844.13
2023-05-25T03:32:34.711Z,101836.78
2023-05-25T03:35:20.062Z,101838.91
2023-05-25T03:38:05.584Z,101841.91
2023-05-25T03:40:50.834Z,101853.69
2023-05-25T03:43:36.176Z,101849.13
2023-05-25T03:46:21.632Z,101853.91
2023-05-25T03:49:06.980Z,101857.38
2023-05-25T03:51:52.013Z,101838.75
2023-05-25T03:54:37.397Z,101847.78
2023-05-25T03:57:22.750Z,101845.81
2023-05-25T04:00:08.920Z,101848.75
2023-05-25T04:02:54.130Z,101845.75
2023-05-25T04:05:39.416Z,101859.34
2023-05-25T04:08:25.030Z,101866.78
2023-05-25T04:11:10.452Z,101871.44
2023-05-25T04:13:55.413Z,101867.44
2023-05-25T04:16:41.072Z,101860.56
2023-05-25T04:19:26.358Z,101868.47
2023-05-25T04:22:11.735Z,101872.38
2023-05-25T04:24:57.061Z,101865.81
2023-05-25T04:27:41.911Z,101868.31
2023-05-25T04:30:27.009Z,101865.16
2023-05-25T04:33:12.138Z,101869.09
2023-05-25T04:35:57.570Z,101864.91
2023-05-25T04:38:42.549Z,101872.19
2023-05-25T04:41:28.170Z,101869.34
2023-05-25T04:44:13.348Z,101880.94
2023-05-25T04:46:59.258Z,101883.22
2023-05-25T04:49:45.023Z,101885.06
2023-05-25T04:52:30.581Z,101886.47
2023-05-25T04:55:16.106Z,101887.22
2023-05-25T04:58:01.274Z,101893.25
2023-05-25T05:00:46.730Z,101894.03
2023-05-25T05:03:32.256Z,101905.22
2023-05-25T05:06:17.715Z,101902.47
2023-05-25T05:09:03.024Z,101906.81
2023-05-25T05:11:48.077Z,101904.06
2023-05-25T05:14:33.210Z,101905.50
2023-05-25T05:17:18.802Z,101903.66
2023-05-25T05:20:04.400Z,101901.69
2023-05-25T05:22:49.740Z,101892.63
2023-05-25T05:25:35.086Z,101893.00
2023-05-25T05:28:20.106Z,101889.91
2023-05-25T05:31:05.636Z,101890.88
2023-05-25T05:33:50.988Z,101886.06
2023-05-25T05:36:48.857Z,101884.28
2023-05-25T05:39:41.360Z,101883.69
2023-05-25T05:42:26.609Z,101879.56
2023-05-25T05:45:11.747Z,101887.03
2023-05-25T05:47:57.112Z,101877.94
2023-05-25T05:50:42.680Z,101876.19
2023-05-25T05:53:27.769Z,101882.81
2023-05-25T05:56:19.779Z,101871.72
2023-05-25T05:59:04.653Z,101867.59
2023-05-25T06:01:50.094Z,101874.44
2023-05-25T06:04:35.445Z,101879.34
2023-05-25T06:07:20.952Z,101891.56
2023-05-25T06:10:06.772Z,101878.25
2023-05-25T06:12:52.613Z,101871.72
2023-05-25T06:15:38.021Z,101876.75
2023-05-25T06:18:23.462Z,101871.09
2023-05-25T06:21:10.654Z,101875.97
2023-05-25T06:23:56.036Z,101869.66
2023-05-25T06:26:41.244Z,101857.81
2023-05-25T06:29:26.546Z,101859.78
2023-05-25T06:32:11.978Z,101852.19
2023-05-25T06:34:57.219Z,101882.97
2023-05-25T06:37:42.553Z,101887.22
2023-05-25T06:40:28.079Z,101890.59
2023-05-25T06:43:13.556Z,101890.31
2023-05-25T06:45:58.984Z,101879.84
2023-05-25T06:48:44.747Z,101868.25
2023-05-25T06:51:29.993Z,101873.13
2023-05-25T06:54:14.999Z,101874.31
2023-05-25T06:57:00.234Z,101872.34
2023-05-25T06:59:45.662Z,101879.91
2023-05-25T07:02:31.138Z,101890.28
2023-05-25T07:05:16.482Z,101886.44
2023-05-25T07:08:02.059Z,101897.78
2023-05-25T07:10:49.206Z,101898.16
2023-05-25T07:13:35.514Z,101898.34
2023-05-25T07:16:21.106Z,101913.16
2023-05-25T07:19:06.520Z,101904.41
2023-05-25T07:21:52.081Z,101894.44
2023-05-25T07:24:37.448Z,101901.78
2023-05-25T07:27:22.283Z,101913.34
2023-05-25T07:30:08.106Z,101912.81
2023-05-25T07:32:53.351Z,101927.69
2023-05-25T07:35:38.708Z,101928.38
2023-05-25T07:38:23.920Z,101926.69
2023-05-25T07:41:09.422Z,101931.41
2023-05-25T07:43:54.936Z,101946.03
2023-05-25T07:46:40.338Z,101947.88
2023-05-25T07:49:25.789Z,101962.22
2023-05-25T07:52:11.876Z,101972.16
2023-05-25T07:54:57.050Z,101982.75
2023-05-25T07:57:42.431Z,101980.44
2023-05-25T08:00:27.822Z,101965.53
2023-05-25T08:03:13.341Z,101964.69
2023-05-25T08:05:58.746Z,101961.00
2023-05-25T08:08:44.258Z,101964.44
2023-05-25T08:11:29.268Z,101942.84
2023-05-25T08:14:14.767Z,101952.28
2023-05-25T08:17:00.259Z,101946.72
2023-05-25T08:19:45.486Z,101929.72
2023-05-25T08:22:30.971Z,101929.06
2023-05-25T08:25:15.709Z,101930.50
2023-05-25T08:28:01.144Z,101938.91
2023-05-25T08:30:46.722Z,101925.06
2023-05-25T08:33:32.054Z,101913.56
2023-05-25T08:36:17.478Z,101908.25
2023-05-25T08:39:03.472Z,101911.28
2023-05-25T08:41:50.408Z,101923.00
2023-05-25T08:44:36.706Z,101924.25
2023-05-25T08:47:23.016Z,101911.41
2023-05-25T08:50:12.446Z,101903.28
2023-05-25T08:53:02.574Z,101896.38
2023-05-25T08:55:49.783Z,101912.88
2023-05-25T08:58:42.855Z,101910.28
2023-05-25T09:01:33.075Z,101897.78
2023-05-25T09:04:19.680Z,101890.97
2023-05-25T09:07:10.273Z,101909.59
2023-05-25T09:09:57.414Z,101898.94
2023-05-25T09:12:42.875Z,101886.88
2023-05-25T09:15:28.096Z,101905.47
2023-05-25T09:18:13.384Z,101915.97
2023-05-25T09:20:58.496Z,101897.31
2023-05-25T09:23:44.360Z,101888.28
2023-05-25T09:26:29.953Z,101866.13
2023-05-25T09:29:15.744Z,101851.47
2023-05-25T09:32:01.175Z,101869.28
2023-05-25T09:34:47.380Z,101879.25
2023-05-25T09:37:33.045Z,101895.34
2023-05-25T09:40:18.171Z,101876.09
2023-05-25T09:43:03.949Z,101880.09
2023-05-25T09:45:52.503Z,101887.03
2023-05-25T09:48:38.323Z,101872.66
2023-05-25T09:51:23.665Z,101908.53
2023-05-25T09:54:10.650Z,101918.56
2023-05-25T09:56:56.161Z,101897.00
2023-05-25T09:59:42.698Z,101918.66
2023-05-25T10:02:28.337Z,101922.84
2023-05-25T10:05:13.537Z,101878.69
2023-05-25T10:08:01.530Z,101890.34
2023-05-25T10:10:50.908Z,101884.66
2023-05-25T10:13:37.157Z,101867.69
2023-05-25T10:16:26.155Z,101866.44
2023-05-25T10:19:16.164Z,101883.22
2023-05-25T10:22:06.612Z,101876.09
2023-05-25T10:25:02.657Z,101847.28
2023-05-25T10:27:59.498Z,101807.75
2023-05-25T10:30:46.213Z,101791.38
2023-05-25T10:33:32.675Z,101806.28
2023-05-25T10:36:20.323Z,101811.13
2023-05-25T10:39:08.456Z,101830.69
2023-05-25T10:41:55.021Z,101858.31
2023-05-25T10:44:43.734Z,101888.84
2023-05-25T10:47:30.353Z,101856.63
2023-05-25T10:50:24.563Z,101811.13
2023-05-25T10:53:13.400Z,101828.78
2023-05-25T10:55:58.505Z,101812.41
2023-05-25T10:58:46.091Z,101870.03
2023-05-25T11:01:31.674Z,101890.97
2023-05-25T11:04:16.874Z,101913.44
2023-05-25T11:07:03.279Z,101936.44
2023-05-25T11:09:58.221Z,101956.03
2023-05-25T11:12:46.038Z,101931.06
2023-05-25T11:15:31.407Z,101875.38
2023-05-25T11:18:16.860Z,101886.03
2023-05-25T11:21:27.239Z,101904.16
2023-05-25T11:24:17.387Z,101902.41
2023-05-25T11:27:02.540Z,101897.13
2023-05-25T11:29:51.265Z,101896.16
2023-05-25T11:32:36.387Z,101874.19
2023-05-25T11:35:21.414Z,101874.53
2023-05-25T11:38:07.868Z,101899.16
2023-05-25T11:40:53.249Z,101875.81
2023-05-25T11:43:38.978Z,101867.59
2023-05-25T11:46:24.371Z,101879.84
2023-05-25T11:49:09.633Z,101867.66
2023-05-25T11:51:57.282Z,101874.94
2023-05-25T11:54:42.962Z,101861.28
2023-05-25T11:57:28.647Z,101834.84
2023-05-25T12:00:24.962Z,101842.16
2023-05-25T12:03:09.905Z,101867.47
2023-05-25T12:05:55.403Z,101878.63
2023-05-25T12:08:40.718Z,101906.31
2023-05-25T12:11:34.933Z,101895.25
2023-05-25T12:14:20.054Z,101875.72
2023-05-25T12:17:06.277Z,101880.13
2023-05-25T12:19:51.782Z,101889.31
2023-05-25T12:22:39.166Z,101872.88
2023-05-25T12:25:24.872Z,101834.38
2023-05-25T12:28:15.029Z,101821.53
2023-05-25T12:31:19.833Z,101835.34
2023-05-25T12:34:16.663Z,101823.91
2023-05-25T12:37:01.507Z,101833.72
2023-05-25T12:39:48.029Z,101827.25
2023-05-25T12:42:33.477Z,101843.91
2023-05-25T12:45:18.657Z,101803.75
2023-05-25T12:48:04.188Z,101821.16
2023-05-25T12:50:59.056Z,101807.03
2023-05-25T12:53:51.541Z,101810.06
2023-05-25T12:56:54.169Z,101806.78
2023-05-25T12:59:41.661Z,101808.56
2023-05-25T13:02:27.190Z,101828.13
2023-05-25T13:05:26.560Z,101774.31
2023-05-25T13:08:12.251Z,101762.00
2023-05-25T13:10:57.355Z,101752.34
2023-05-25T13:13:42.801Z,101758.81
2023-05-25T13:16:30.563Z,101776.41
2023-05-25T13:19:16.185Z,101766.94
2023-05-25T13:22:01.716Z,101785.16
2023-05-25T13:24:47.428Z,101733.41
2023-05-25T13:27:32.834Z,101761.97
2023-05-25T13:30:18.724Z,101768.34
2023-05-25T13:33:04.089Z,101775.03
2023-05-25T13:35:49.450Z,101792.22
2023-05-25T13:38:36.478Z,101779.53
2023-05-25T13:41:22.203Z,101755.53
2023-05-25T13:44:07.277Z,101695.28
2023-05-25T13:46:52.667Z,101699.47
2023-05-25T13:49:38.131Z,101714.22
2023-05-25T13:52:24.047Z,101759.56
2023-05-25T13:55:08.936Z,101752.69
2023-05-25T13:57:54.011Z,101721.19
2023-05-25T14:00:39.658Z,101726.34
2023-05-25T14:03:24.716Z,101724.59
2023-05-25T14:06:10.144Z,101727.22
2023-05-25T14:08:55.353Z,101719.38
2023-05-25T14:11:40.441Z,101709.81
2023-05-25T14:14:32.185Z,101707.09
2023-05-25T14:17:17.776Z,101740.47
2023-05-25T14:20:04.261Z,101745.06
2023-05-25T14:22:49.634Z,101732.97
2023-05-25T14:25:34.638Z,101699.78
2023-05-25T14:28:20.210Z,101690.91
2023-05-25T14:31:05.643Z,101679.34
2023-05-25T14:33:50.708Z,101684.63
2023-05-25T14:36:36.039Z,101690.72
2023-05-25T14:39:20.898Z,101707.38
2023-05-25T14:42:06.873Z,101664.47
2023-05-25T14:44:52.118Z,101677.44
2023-05-25T14:47:37.675Z,101705.66
2023-05-25T14:50:22.937Z,101708.28
2023-05-25T14:53:08.371Z,101734.72
2023-05-25T14:55:53.752Z,101738.31
2023-05-25T14:58:39.124Z,101684.84
2023-05-25T15:01:25.562Z,101676.03
2023-05-25T15:04:11.040Z,101702.25
2023-05-25T15:06:56.479Z,101657.63
2023-05-25T15:09:42.499Z,101668.09
2023-05-25T15:12:27.656Z,101701.84
2023-05-25T15:15:13.066Z,101738.56
2023-05-25T15:17:58.369Z,101677.69
2023-05-25T15:20:43.770Z,101653.28
2023-05-25T15:23:28.965Z,101628.75
2023-05-25T15:26:14.331Z,101647.09
2023-05-25T15:29:00.340Z,101657.63
2023-05-25T15:31:45.897Z,101661.09
2023-05-25T15:34:31.277Z,101663.63
2023-05-25T15:37:16.543Z,101667.91
2023-05-25T15:40:02.064Z,101648.78
2023-05-25T15:42:47.582Z,101648.06
2023-05-25T15:45:33.038Z,101641.03
2023-05-25T15:48:18.543Z,101645.34
2023-05-25T15:51:03.660Z,101663.84
2023-05-25T15:53:49.282Z,101660.47
2023-05-25T15:56:35.600Z,101683.28
2023-05-25T15:59:20.563Z,101679.78
2023-05-25T16:02:06.495Z,101699.00
2023-05-25T16:04:51.832Z,101631.06
2023-05-25T16:07:37.416Z,101613.50
2023-05-25T16:10:22.829Z,101597.53
2023-05-25T16:13:08.142Z,101628.09
2023-05-25T16:15:53.718Z,101633.47
2023-05-25T16:18:39.024Z,101653.53
2023-05-25T16:21:24.558Z,101662.31
2023-05-25T16:24:09.797Z,101626.66
2023-05-25T16:26:55.818Z,101618.88
2023-05-25T16:29:41.091Z,101610.16
2023-05-25T16:32:26.306Z,101626.66
2023-05-25T16:35:11.947Z,101634.22
2023-05-25T16:37:56.975Z,101650.00
2023-05-25T16:40:42.444Z,101663.94
2023-05-25T16:43:27.776Z,101645.66
2023-05-25T16:46:13.236Z,101647.38
2023-05-25T16:48:58.832Z,101643.59
2023-05-25T16:51:43.935Z,101667.34
2023-05-25T16:54:29.675Z,101652.34
2023-05-25T16:57:14.942Z,101651.50
2023-05-25T17:00:00.269Z,101682.13
2023-05-25T17:02:45.895Z,101657.75
2023-05-25T17:05:31.257Z,101637.78
2023-05-25T17:08:16.535Z,101643.88
2023-05-25T17:11:03.317Z,101627.38
2023-05-25T17:13:48.668Z,101636.09
2023-05-25T17:16:34.250Z,101641.34
2023-05-25T17:19:19.467Z,101633.59
2023-05-25T17:22:05.559Z,101679.63
2023-05-25T17:24:50.801Z,101662.25
2023-05-25T17:27:36.726Z,101661.41
2023-05-25T17:30:21.734Z,101700.50
2023-05-25T17:33:07.080Z,101662.88
2023-05-25T17:35:52.521Z,101654.97
2023-05-25T17:38:37.815Z,101676.72
2023-05-25T17:41:23.221Z,101694.97
2023-05-25T17:44:08.610Z,101682.00
2023-05-25T17:46:54.088Z,101700.19
2023-05-25T17:49:39.168Z,101699.34
2023-05-25T17:52:24.319Z,101685.47
2023-05-25T17:55:09.613Z,101669.50
2023-05-25T17:57:55.050Z,101693.00
2023-05-25T18:00:40.712Z,101704.31
2023-05-25T18:03:26.272Z,101698.34
2023-05-25T18:06:11.402Z,101696.47
2023-05-25T18:08:56.775Z,101697.44
2023-05-25T18:11:42.245Z,101683.47
2023-05-25T18:14:27.550Z,101707.94
2023-05-25T18:17:13.506Z,101748.91
2023-05-25T18:19:59.063Z,101791.66
2023-05-25T18:22:44.400Z,101768.25
2023-05-25T18:25:29.724Z,101729.97
2023-05-25T18:28:15.332Z,101710.72
2023-05-25T18:31:01.018Z,101696.75
2023-05-25T18:33:46.761Z,101690.44
2023-05-25T18:36:32.215Z,101705.91
2023-05-25T18:39:17.639Z,101697.25
2023-05-25T18:42:03.312Z,101694.47
2023-05-25T18:44:48.948Z,101694.44
2023-05-25T18:47:34.051Z,101697.97
2023-05-25T18:50:19.338Z,101716.16
2023-05-25T18:53:05.239Z,101697.66
2023-05-25T18:55:50.836Z,101702.69
2023-05-25T18:58:35.949Z,101713.13
2023-05-25T19:01:21.252Z,101717.41
2023-05-25T19:04:06.916Z,101719.84
2023-05-25T19:06:52.768Z,101734.53
2023-05-25T19:09:38.102Z,101734.31
2023-05-25T19:12:23.431Z,101735.00
2023-05-25T19:15:09.718Z,101734.03
2023-05-25T19:17:54.698Z,101741.66
2023-05-25T19:20:40.133Z,101747.59
2023-05-25T19:23:25.195Z,101758.78
2023-05-25T19:26:10.528Z,101783.25
2023-05-25T19:28:57.787Z,101785.72
2023-05-25T19:31:46.191Z,101793.41
2023-05-25T19:34:31.817Z,101785.19
2023-05-25T19:37:16.974Z,101801.25
2023-05-25T19:40:02.554Z,101818.38
2023-05-25T19:42:47.950Z,101826.81
2023-05-25T19:45:33.422Z,101829.16
2023-05-25T19:48:18.887Z,101840.38
2023-05-25T19:51:04.452Z,101852.38
2023-05-25T19:53:49.721Z,101849.72
2023-05-25T19:56:35.059Z,101851.25
2023-05-25T19:59:20.176Z,101853.72
2023-05-25T20:02:05.710Z,101849.94
2023-05-25T20:04:50.863Z,101871.25
2023-05-25T20:07:36.541Z,101868.66
2023-05-25T20:10:24.972Z,101889.97
2023-05-25T20:13:10.503Z,101892.59
2023-05-25T20:15:55.678Z,101891.69
2023-05-25T20:18:40.991Z,101903.19
2023-05-25T20:21:26.523Z,101894.38
2023-05-25T20:24:11.761Z,101893.50
2023-05-25T20:26:57.257Z,101901.63
2023-05-25T20:29:42.593Z,101903.63
2023-05-25T20:32:27.877Z,101901.53
2023-05-25T20:35:15.774Z,101901.19
2023-05-25T20:38:00.883Z,101900.38
2023-05-25T20:40:46.234Z,101910.34
2023-05-25T20:43:31.551Z,101909.47
2023-05-25T20:46:17.122Z,101917.25
2023-05-25T20:49:02.528Z,101922.38
2023-05-25T20:51:47.906Z,101932.63
2023-05-25T20:54:33.408Z,101919.84
2023-05-25T20:57:19.195Z,101926.28
2023-05-25T21:00:04.574Z,101920.22
2023-05-25T21:02:50.131Z,101928.72
2023-05-25T21:05:35.282Z,101940.97
2023-05-25T21:08:23.119Z,101943.44
2023-05-25T21:11:08.542Z,101942.03
2023-05-25T21:13:53.818Z,101941.84
2023-05-25T21:16:39.333Z,101940.72
2023-05-25T21:19:24.601Z,101943.78
2023-05-25T21:22:09.988Z,101949.38
2023-05-25T21:24:55.476Z,101954.00
2023-05-25T21:27:40.860Z,101963.53
2023-05-25T21:30:26.186Z,101973.88
2023-05-25T21:33:11.493Z,101981.19
2023-05-25T21:35:56.960Z,101989.91
2023-05-25T21:38:42.320Z,101983.28
2023-05-25T21:41:28.105Z,101989.53
2023-05-25T21:44:13.284Z,101990.19
2023-05-25T21:46:58.766Z,101998.13
2023-05-25T21:49:44.026Z,102004.56
2023-05-25T21:52:29.407Z,101997.16
2023-05-25T21:55:14.827Z,102008.56
2023-05-25T21:58:00.191Z,102017.19
2023-05-25T22:00:45.930Z,102011.91
2023-05-25T22:03:31.189Z,102025.63
2023-05-25T22:06:16.597Z,102030.97
2023-05-25T22:09:02.068Z,102029.53
2023-05-25T22:11:47.361Z,102026.72
2023-05-25T22:14:32.728Z,102035.47
2023-05-25T22:17:18.264Z,102041.50
2023-05-25T22:20:07.920Z,102050.84
2023-05-25T22:22:53.935Z,102054.28
2023-05-25T22:25:39.283Z,102057.66
2023-05-25T22:28:24.556Z,102051.97
2023-05-25T22:31:10.570Z,102050.50
2023-05-25T22:33:55.860Z,102060.44
2023-05-25T22:36:41.307Z,102053.81
2023-05-25T22:39:26.510Z,102052.22
2023-05-25T22:42:12.071Z,102056.66
2023-05-25T22:44:57.171Z,102053.50
2023-05-25T22:47:42.613Z,102061.44
2023-05-25T22:50:27.809Z,102063.06
2023-05-25T22:53:13.093Z,102065.41
2023-05-25T22:55:58.559Z,102062.06
2023-05-25T22:58:43.964Z,102061.19
2023-05-25T23:01:29.312Z,102069.25
2023-05-25T23:04:14.756Z,102064.84
2023-05-25T23:07:00.041Z,102073.53
2023-05-25T23:09:45.398Z,102065.47
2023-05-25T23:12:30.946Z,102057.72
2023-05-25T23:15:16.214Z,102063.50
2023-05-25T23:18:01.984Z,102071.50
2023-05-25T23:20:47.528Z,102067.22
2023-05-25T23:23:33.065Z,102065.59
2023-05-25T23:26:18.390Z,102063.44
2023-05-25T23:29:03.839Z,102066.88
2023-05-25T23:31:49.410Z,102067.59
2023-05-25T23:34:34.664Z,102067.34
2023-05-25T23:37:20.010Z,102063.69
2023-05-25T23:40:05.743Z,102052.34
2023-05-25T23:42:51.307Z,102070.97
2023-05-25T23:45:36.957Z,102072.75
2023-05-25T23:48:22.188Z,102065.50
2023-05-25T23:51:08.003Z,102070.41
2023-05-25T23:53:53.372Z,102069.44
2023-05-25T23:56:38.581Z,102074.38
2023-05-25T23:59:24.029Z,102072.56
